sensor_id;sensor_type;location;lat;lon;timestamp;P1;durP1;ratioP1;P2;durP2;ratioP2
38811;SDS011;24553;51.640;-0.752;2023-03-05T00:02:07;5.93;;;2.92;;
38811;SDS011;24553;51.640;-0.752;2023-03-05T00:04:32;5.10;;;3.30;;
38811;SDS011;24553;51.640;-0.752;2023-03-05T00:06:58;2.85;;;2.60;;
38811;SDS011;24553;51.640;-0.752;2023-03-05T00:09:23;4.72;;;3.05;;
38811;SDS011;24553;51.640;-0.752;2023-03-05T00:11:48;3.90;;;1.92;;
38811;SDS011;24553;51.640;-0.752;2023-03-05T00:14:14;3.60;;;2.80;;
38811;SDS011;24553;51.640;-0.752;2023-03-05T00:16:39;3.40;;;2.03;;
38811;SDS011;24553;51.640;-0.752;2023-03-05T00:19:05;3.63;;;1.70;;
38811;SDS011;24553;51.640;-0.752;2023-03-05T00:21:38;5.28;;;2.35;;
38811;SDS011;24553;51.640;-0.752;2023-03-05T00:24:06;8.80;;;2.13;;
38811;SDS011;24553;51.640;-0.752;2023-03-05T00:26:35;8.98;;;3.13;;
38811;SDS011;24553;51.640;-0.752;2023-03-05T00:29:02;5.07;;;1.42;;
38811;SDS011;24553;51.640;-0.752;2023-03-05T00:31:28;4.00;;;2.30;;
38811;SDS011;24553;51.640;-0.752;2023-03-05T00:33:55;5.55;;;3.72;;
38811;SDS011;24553;51.640;-0.752;2023-03-05T00:36:23;4.13;;;2.25;;
38811;SDS011;24553;51.640;-0.752;2023-03-05T00:38:49;1.70;;;1.50;;
38811;SDS011;24553;51.640;-0.752;2023-03-05T00:41:15;4.57;;;1.88;;
38811;SDS011;24553;51.640;-0.752;2023-03-05T00:43:40;4.45;;;2.65;;
38811;SDS011;24553;51.640;-0.752;2023-03-05T00:46:06;7.10;;;2.42;;
38811;SDS011;24553;51.640;-0.752;2023-03-05T00:48:31;5.35;;;3.15;;
38811;SDS011;24553;51.640;-0.752;2023-03-05T00:50:56;7.20;;;2.15;;
38811;SDS011;24553;51.640;-0.752;2023-03-05T00:53:22;5.20;;;2.63;;
38811;SDS011;24553;51.640;-0.752;2023-03-05T00:55:47;5.85;;;2.67;;
38811;SDS011;24553;51.640;-0.752;2023-03-05T00:58:13;10.77;;;2.17;;
38811;SDS011;24553;51.640;-0.752;2023-03-05T01:00:38;8.07;;;2.60;;
38811;SDS011;24553;51.640;-0.752;2023-03-05T01:03:04;8.98;;;3.40;;
38811;SDS011;24553;51.640;-0.752;2023-03-05T01:05:29;3.25;;;2.70;;
38811;SDS011;24553;51.640;-0.752;2023-03-05T01:07:55;5.57;;;2.40;;
38811;SDS011;24553;51.640;-0.752;2023-03-05T01:10:21;3.97;;;2.67;;
38811;SDS011;24553;51.640;-0.752;2023-03-05T01:12:50;7.28;;;2.47;;
38811;SDS011;24553;51.640;-0.752;2023-03-05T01:15:15;4.55;;;2.58;;
38811;SDS011;24553;51.640;-0.752;2023-03-05T01:17:41;4.00;;;1.80;;
38811;SDS011;24553;51.640;-0.752;2023-03-05T01:20:06;2.95;;;2.33;;
38811;SDS011;24553;51.640;-0.752;2023-03-05T01:22:32;7.13;;;2.15;;
38811;SDS011;24553;51.640;-0.752;2023-03-05T01:24:58;4.60;;;2.15;;
38811;SDS011;24553;51.640;-0.752;2023-03-05T01:27:24;2.47;;;1.70;;
38811;SDS011;24553;51.640;-0.752;2023-03-05T01:29:49;11.35;;;1.95;;
38811;SDS011;24553;51.640;-0.752;2023-03-05T01:32:14;8.80;;;2.50;;
38811;SDS011;24553;51.640;-0.752;2023-03-05T01:34:40;7.60;;;2.63;;
38811;SDS011;24553;51.640;-0.752;2023-03-05T01:37:06;6.20;;;2.38;;
38811;SDS011;24553;51.640;-0.752;2023-03-05T01:39:32;4.43;;;2.40;;
38811;SDS011;24553;51.640;-0.752;2023-03-05T01:41:57;3.67;;;2.22;;
38811;SDS011;24553;51.640;-0.752;2023-03-05T01:44:24;14.73;;;3.78;;
38811;SDS011;24553;51.640;-0.752;2023-03-05T01:46:51;6.20;;;2.17;;
38811;SDS011;24553;51.640;-0.752;2023-03-05T01:49:35;2.78;;;2.22;;
38811;SDS011;24553;51.640;-0.752;2023-03-05T01:54:39;3.90;;;3.33;;
38811;SDS011;24553;51.640;-0.752;2023-03-05T01:57:09;3.92;;;2.72;;
38811;SDS011;24553;51.640;-0.752;2023-03-05T01:59:38;4.05;;;2.15;;
38811;SDS011;24553;51.640;-0.752;2023-03-05T02:02:06;2.80;;;2.15;;
38811;SDS011;24553;51.640;-0.752;2023-03-05T02:04:36;3.58;;;2.40;;
38811;SDS011;24553;51.640;-0.752;2023-03-05T02:07:09;6.00;;;3.65;;
38811;SDS011;24553;51.640;-0.752;2023-03-05T02:09:38;7.68;;;2.50;;
38811;SDS011;24553;51.640;-0.752;2023-03-05T02:12:05;4.35;;;2.78;;
38811;SDS011;24553;51.640;-0.752;2023-03-05T02:14:32;4.32;;;2.45;;
38811;SDS011;24553;51.640;-0.752;2023-03-05T02:16:58;3.83;;;2.60;;
38811;SDS011;24553;51.640;-0.752;2023-03-05T02:19:24;7.07;;;4.35;;
38811;SDS011;24553;51.640;-0.752;2023-03-05T02:21:50;5.35;;;2.65;;
38811;SDS011;24553;51.640;-0.752;2023-03-05T02:24:30;2.85;;;2.50;;
38811;SDS011;24553;51.640;-0.752;2023-03-05T02:26:59;3.53;;;1.83;;
38811;SDS011;24553;51.640;-0.752;2023-03-05T02:29:25;7.60;;;2.45;;
38811;SDS011;24553;51.640;-0.752;2023-03-05T02:31:54;4.57;;;2.30;;
38811;SDS011;24553;51.640;-0.752;2023-03-05T02:34:20;4.97;;;2.25;;
38811;SDS011;24553;51.640;-0.752;2023-03-05T02:36:46;3.67;;;2.28;;
38811;SDS011;24553;51.640;-0.752;2023-03-05T02:39:14;3.03;;;1.83;;
38811;SDS011;24553;51.640;-0.752;2023-03-05T02:41:39;6.78;;;2.20;;
38811;SDS011;24553;51.640;-0.752;2023-03-05T02:44:05;6.50;;;2.70;;
38811;SDS011;24553;51.640;-0.752;2023-03-05T02:46:30;4.15;;;3.13;;
38811;SDS011;24553;51.640;-0.752;2023-03-05T02:48:55;5.20;;;2.53;;
38811;SDS011;24553;51.640;-0.752;2023-03-05T02:51:21;6.85;;;3.05;;
38811;SDS011;24553;51.640;-0.752;2023-03-05T02:53:46;3.97;;;2.45;;
38811;SDS011;24553;51.640;-0.752;2023-03-05T02:56:12;5.78;;;2.10;;
38811;SDS011;24553;51.640;-0.752;2023-03-05T02:58:37;4.28;;;2.28;;
38811;SDS011;24553;51.640;-0.752;2023-03-05T03:01:02;4.35;;;2.72;;
38811;SDS011;24553;51.640;-0.752;2023-03-05T03:03:28;4.30;;;2.17;;
38811;SDS011;24553;51.640;-0.752;2023-03-05T03:05:53;4.32;;;2.55;;
38811;SDS011;24553;51.640;-0.752;2023-03-05T03:08:19;5.93;;;2.55;;
38811;SDS011;24553;51.640;-0.752;2023-03-05T03:10:44;3.53;;;2.78;;
38811;SDS011;24553;51.640;-0.752;2023-03-05T03:13:09;5.20;;;2.55;;
38811;SDS011;24553;51.640;-0.752;2023-03-05T03:15:35;6.80;;;2.17;;
38811;SDS011;24553;51.640;-0.752;2023-03-05T03:18:02;5.10;;;2.78;;
38811;SDS011;24553;51.640;-0.752;2023-03-05T03:20:27;5.20;;;3.53;;
38811;SDS011;24553;51.640;-0.752;2023-03-05T03:22:52;8.48;;;4.40;;
38811;SDS011;24553;51.640;-0.752;2023-03-05T03:25:19;8.52;;;3.08;;
38811;SDS011;24553;51.640;-0.752;2023-03-05T03:27:45;6.43;;;2.67;;
38811;SDS011;24553;51.640;-0.752;2023-03-05T03:30:11;10.00;;;2.70;;
38811;SDS011;24553;51.640;-0.752;2023-03-05T03:32:37;4.28;;;1.63;;
38811;SDS011;24553;51.640;-0.752;2023-03-05T03:35:03;7.53;;;2.55;;
38811;SDS011;24553;51.640;-0.752;2023-03-05T03:37:28;7.10;;;3.47;;
38811;SDS011;24553;51.640;-0.752;2023-03-05T03:39:54;12.77;;;3.58;;
38811;SDS011;24553;51.640;-0.752;2023-03-05T03:42:20;6.03;;;2.75;;
38811;SDS011;24553;51.640;-0.752;2023-03-05T03:44:47;5.22;;;2.47;;
38811;SDS011;24553;51.640;-0.752;2023-03-05T03:47:13;2.85;;;2.45;;
38811;SDS011;24553;51.640;-0.752;2023-03-05T03:49:38;4.45;;;3.13;;
38811;SDS011;24553;51.640;-0.752;2023-03-05T03:52:04;4.15;;;3.45;;
38811;SDS011;24553;51.640;-0.752;2023-03-05T03:54:30;3.40;;;2.80;;
38811;SDS011;24553;51.640;-0.752;2023-03-05T03:56:55;5.07;;;3.40;;
38811;SDS011;24553;51.640;-0.752;2023-03-05T03:59:20;3.25;;;2.95;;
38811;SDS011;24553;51.640;-0.752;2023-03-05T04:01:46;4.90;;;2.75;;
38811;SDS011;24553;51.640;-0.752;2023-03-05T04:04:11;6.32;;;3.55;;
38811;SDS011;24553;51.640;-0.752;2023-03-05T04:06:37;5.50;;;2.45;;
38811;SDS011;24553;51.640;-0.752;2023-03-05T04:09:03;5.10;;;2.67;;
38811;SDS011;24553;51.640;-0.752;2023-03-05T04:11:29;5.03;;;2.70;;
38811;SDS011;24553;51.640;-0.752;2023-03-05T04:13:54;5.22;;;2.97;;
38811;SDS011;24553;51.640;-0.752;2023-03-05T04:16:20;6.13;;;2.63;;
38811;SDS011;24553;51.640;-0.752;2023-03-05T04:18:45;3.40;;;2.17;;
38811;SDS011;24553;51.640;-0.752;2023-03-05T04:21:10;4.85;;;3.28;;
38811;SDS011;24553;51.640;-0.752;2023-03-05T04:23:36;4.18;;;2.38;;
38811;SDS011;24553;51.640;-0.752;2023-03-05T04:26:02;7.20;;;2.70;;
38811;SDS011;24553;51.640;-0.752;2023-03-05T04:28:28;4.70;;;2.75;;
38811;SDS011;24553;51.640;-0.752;2023-03-05T04:30:53;7.07;;;2.92;;
38811;SDS011;24553;51.640;-0.752;2023-03-05T04:33:18;5.97;;;3.00;;
38811;SDS011;24553;51.640;-0.752;2023-03-05T04:35:44;6.70;;;2.92;;
38811;SDS011;24553;51.640;-0.752;2023-03-05T04:38:10;7.50;;;2.38;;
38811;SDS011;24553;51.640;-0.752;2023-03-05T04:40:36;5.03;;;2.65;;
38811;SDS011;24553;51.640;-0.752;2023-03-05T04:43:01;4.10;;;3.10;;
38811;SDS011;24553;51.640;-0.752;2023-03-05T04:45:26;4.22;;;2.85;;
38811;SDS011;24553;51.640;-0.752;2023-03-05T04:47:52;7.00;;;3.10;;
38811;SDS011;24553;51.640;-0.752;2023-03-05T04:50:17;3.53;;;2.95;;
38811;SDS011;24553;51.640;-0.752;2023-03-05T04:52:43;7.40;;;3.72;;
38811;SDS011;24553;51.640;-0.752;2023-03-05T04:55:10;4.63;;;2.42;;
38811;SDS011;24553;51.640;-0.752;2023-03-05T04:57:36;5.45;;;3.15;;
38811;SDS011;24553;51.640;-0.752;2023-03-05T05:00:03;3.47;;;1.73;;
38811;SDS011;24553;51.640;-0.752;2023-03-05T05:02:37;3.90;;;2.00;;
38811;SDS011;24553;51.640;-0.752;2023-03-05T05:05:03;4.43;;;2.40;;
38811;SDS011;24553;51.640;-0.752;2023-03-05T05:07:28;5.70;;;2.83;;
38811;SDS011;24553;51.640;-0.752;2023-03-05T05:09:56;6.80;;;2.80;;
38811;SDS011;24553;51.640;-0.752;2023-03-05T05:12:22;6.05;;;2.80;;
38811;SDS011;24553;51.640;-0.752;2023-03-05T05:14:47;8.00;;;3.30;;
38811;SDS011;24553;51.640;-0.752;2023-03-05T05:17:13;4.50;;;2.78;;
38811;SDS011;24553;51.640;-0.752;2023-03-05T05:19:38;3.67;;;2.60;;
38811;SDS011;24553;51.640;-0.752;2023-03-05T05:22:03;6.18;;;3.42;;
38811;SDS011;24553;51.640;-0.752;2023-03-05T05:24:29;6.55;;;2.97;;
38811;SDS011;24553;51.640;-0.752;2023-03-05T05:26:54;8.43;;;4.32;;
38811;SDS011;24553;51.640;-0.752;2023-03-05T05:29:20;6.70;;;4.40;;
38811;SDS011;24553;51.640;-0.752;2023-03-05T05:31:45;7.28;;;3.95;;
38811;SDS011;24553;51.640;-0.752;2023-03-05T05:34:11;5.82;;;3.47;;
38811;SDS011;24553;51.640;-0.752;2023-03-05T05:36:37;6.90;;;3.78;;
38811;SDS011;24553;51.640;-0.752;2023-03-05T05:39:02;8.27;;;4.38;;
38811;SDS011;24553;51.640;-0.752;2023-03-05T05:41:28;7.45;;;3.15;;
38811;SDS011;24553;51.640;-0.752;2023-03-05T05:43:54;7.68;;;3.72;;
38811;SDS011;24553;51.640;-0.752;2023-03-05T05:46:19;4.78;;;3.33;;
38811;SDS011;24553;51.640;-0.752;2023-03-05T05:48:45;8.63;;;3.67;;
38811;SDS011;24553;51.640;-0.752;2023-03-05T05:51:12;4.55;;;3.15;;
38811;SDS011;24553;51.640;-0.752;2023-03-05T05:53:39;8.32;;;4.10;;
38811;SDS011;24553;51.640;-0.752;2023-03-05T05:56:06;8.43;;;3.90;;
38811;SDS011;24553;51.640;-0.752;2023-03-05T05:58:34;6.05;;;3.38;;
38811;SDS011;24553;51.640;-0.752;2023-03-05T06:01:00;14.65;;;5.28;;
38811;SDS011;24553;51.640;-0.752;2023-03-05T06:03:26;5.43;;;3.67;;
38811;SDS011;24553;51.640;-0.752;2023-03-05T06:05:51;8.65;;;4.00;;
38811;SDS011;24553;51.640;-0.752;2023-03-05T06:08:17;7.40;;;4.93;;
38811;SDS011;24553;51.640;-0.752;2023-03-05T06:10:43;8.15;;;4.15;;
38811;SDS011;24553;51.640;-0.752;2023-03-05T06:13:08;11.65;;;4.75;;
38811;SDS011;24553;51.640;-0.752;2023-03-05T06:15:34;7.03;;;3.45;;
38811;SDS011;24553;51.640;-0.752;2023-03-05T06:17:59;5.00;;;2.88;;
38811;SDS011;24553;51.640;-0.752;2023-03-05T06:20:26;6.40;;;3.85;;
38811;SDS011;24553;51.640;-0.752;2023-03-05T06:22:52;7.15;;;2.97;;
38811;SDS011;24553;51.640;-0.752;2023-03-05T06:25:17;6.72;;;3.97;;
38811;SDS011;24553;51.640;-0.752;2023-03-05T06:27:43;14.55;;;5.07;;
38811;SDS011;24553;51.640;-0.752;2023-03-05T06:30:08;8.95;;;3.78;;
38811;SDS011;24553;51.640;-0.752;2023-03-05T06:32:35;8.27;;;4.32;;
38811;SDS011;24553;51.640;-0.752;2023-03-05T06:35:00;14.02;;;4.47;;
38811;SDS011;24553;51.640;-0.752;2023-03-05T06:37:25;10.55;;;4.72;;
38811;SDS011;24553;51.640;-0.752;2023-03-05T06:39:51;7.13;;;4.60;;
38811;SDS011;24553;51.640;-0.752;2023-03-05T06:42:16;9.07;;;4.38;;
38811;SDS011;24553;51.640;-0.752;2023-03-05T06:44:43;9.30;;;4.47;;
38811;SDS011;24553;51.640;-0.752;2023-03-05T06:47:09;9.98;;;4.80;;
38811;SDS011;24553;51.640;-0.752;2023-03-05T06:49:35;10.73;;;5.43;;
38811;SDS011;24553;51.640;-0.752;2023-03-05T06:52:01;16.30;;;5.88;;
38811;SDS011;24553;51.640;-0.752;2023-03-05T06:54:27;12.07;;;7.10;;
38811;SDS011;24553;51.640;-0.752;2023-03-05T06:56:53;23.38;;;8.10;;
38811;SDS011;24553;51.640;-0.752;2023-03-05T06:59:18;15.88;;;7.60;;
38811;SDS011;24553;51.640;-0.752;2023-03-05T07:01:46;14.68;;;7.93;;
38811;SDS011;24553;51.640;-0.752;2023-03-05T07:04:12;16.63;;;7.53;;
38811;SDS011;24553;51.640;-0.752;2023-03-05T07:06:38;13.00;;;6.90;;
38811;SDS011;24553;51.640;-0.752;2023-03-05T07:09:05;11.60;;;5.95;;
38811;SDS011;24553;51.640;-0.752;2023-03-05T07:11:32;17.02;;;6.68;;
38811;SDS011;24553;51.640;-0.752;2023-03-05T07:13:58;14.88;;;7.47;;
38811;SDS011;24553;51.640;-0.752;2023-03-05T07:16:25;15.57;;;6.13;;
38811;SDS011;24553;51.640;-0.752;2023-03-05T07:18:52;10.52;;;6.30;;
38811;SDS011;24553;51.640;-0.752;2023-03-05T07:21:19;17.20;;;8.07;;
38811;SDS011;24553;51.640;-0.752;2023-03-05T07:23:48;13.65;;;7.53;;
38811;SDS011;24553;51.640;-0.752;2023-03-05T07:26:14;12.40;;;5.75;;
38811;SDS011;24553;51.640;-0.752;2023-03-05T07:28:39;11.65;;;5.85;;
38811;SDS011;24553;51.640;-0.752;2023-03-05T07:31:06;13.45;;;5.78;;
38811;SDS011;24553;51.640;-0.752;2023-03-05T07:33:35;12.55;;;7.28;;
38811;SDS011;24553;51.640;-0.752;2023-03-05T07:36:01;12.35;;;7.03;;
38811;SDS011;24553;51.640;-0.752;2023-03-05T07:38:28;11.27;;;6.05;;
38811;SDS011;24553;51.640;-0.752;2023-03-05T07:41:00;20.50;;;7.22;;
38811;SDS011;24553;51.640;-0.752;2023-03-05T07:43:34;15.23;;;6.30;;
38811;SDS011;24553;51.640;-0.752;2023-03-05T07:46:08;8.77;;;5.60;;
38811;SDS011;24553;51.640;-0.752;2023-03-05T07:48:35;17.20;;;7.53;;
38811;SDS011;24553;51.640;-0.752;2023-03-05T07:51:02;13.73;;;6.57;;
38811;SDS011;24553;51.640;-0.752;2023-03-05T07:53:29;12.45;;;6.22;;
38811;SDS011;24553;51.640;-0.752;2023-03-05T07:55:54;11.43;;;5.38;;
38811;SDS011;24553;51.640;-0.752;2023-03-05T07:58:20;12.65;;;6.28;;
38811;SDS011;24553;51.640;-0.752;2023-03-05T08:00:45;15.02;;;8.02;;
38811;SDS011;24553;51.640;-0.752;2023-03-05T08:03:10;15.85;;;6.65;;
38811;SDS011;24553;51.640;-0.752;2023-03-05T08:05:39;19.60;;;7.68;;
38811;SDS011;24553;51.640;-0.752;2023-03-05T08:08:05;15.55;;;7.80;;
38811;SDS011;24553;51.640;-0.752;2023-03-05T08:10:31;14.35;;;7.63;;
38811;SDS011;24553;51.640;-0.752;2023-03-05T08:12:57;15.20;;;7.53;;
38811;SDS011;24553;51.640;-0.752;2023-03-05T08:15:22;14.38;;;6.32;;
38811;SDS011;24553;51.640;-0.752;2023-03-05T08:17:48;18.70;;;9.38;;
38811;SDS011;24553;51.640;-0.752;2023-03-05T08:20:13;11.80;;;6.80;;
38811;SDS011;24553;51.640;-0.752;2023-03-05T08:22:38;12.40;;;6.72;;
38811;SDS011;24553;51.640;-0.752;2023-03-05T08:25:04;13.93;;;7.10;;
38811;SDS011;24553;51.640;-0.752;2023-03-05T08:27:30;18.63;;;8.07;;
38811;SDS011;24553;51.640;-0.752;2023-03-05T08:29:56;15.75;;;7.50;;
38811;SDS011;24553;51.640;-0.752;2023-03-05T08:32:21;18.88;;;7.47;;
38811;SDS011;24553;51.640;-0.752;2023-03-05T08:34:46;14.25;;;6.80;;
38811;SDS011;24553;51.640;-0.752;2023-03-05T08:37:12;14.98;;;7.65;;
38811;SDS011;24553;51.640;-0.752;2023-03-05T08:39:37;13.40;;;6.60;;
38811;SDS011;24553;51.640;-0.752;2023-03-05T08:42:03;11.48;;;5.47;;
38811;SDS011;24553;51.640;-0.752;2023-03-05T08:44:28;11.57;;;5.57;;
38811;SDS011;24553;51.640;-0.752;2023-03-05T08:46:54;14.07;;;6.00;;
38811;SDS011;24553;51.640;-0.752;2023-03-05T08:49:19;12.98;;;5.95;;
38811;SDS011;24553;51.640;-0.752;2023-03-05T08:51:45;11.00;;;4.90;;
38811;SDS011;24553;51.640;-0.752;2023-03-05T08:54:10;8.55;;;5.15;;
38811;SDS011;24553;51.640;-0.752;2023-03-05T08:56:36;11.15;;;6.75;;
38811;SDS011;24553;51.640;-0.752;2023-03-05T08:59:02;11.65;;;5.30;;
38811;SDS011;24553;51.640;-0.752;2023-03-05T09:01:28;8.60;;;4.72;;
38811;SDS011;24553;51.640;-0.752;2023-03-05T09:03:55;9.93;;;5.38;;
38811;SDS011;24553;51.640;-0.752;2023-03-05T09:06:22;6.53;;;4.65;;
38811;SDS011;24553;51.640;-0.752;2023-03-05T09:08:47;8.52;;;5.82;;
38811;SDS011;24553;51.640;-0.752;2023-03-05T09:11:13;10.43;;;5.20;;
38811;SDS011;24553;51.640;-0.752;2023-03-05T09:13:40;6.20;;;3.83;;
38811;SDS011;24553;51.640;-0.752;2023-03-05T09:16:06;7.82;;;4.30;;
38811;SDS011;24553;51.640;-0.752;2023-03-05T09:18:35;8.50;;;4.85;;
38811;SDS011;24553;51.640;-0.752;2023-03-05T09:21:04;9.80;;;4.22;;
38811;SDS011;24553;51.640;-0.752;2023-03-05T09:23:33;4.53;;;3.75;;
38811;SDS011;24553;51.640;-0.752;2023-03-05T09:25:59;9.75;;;3.95;;
38811;SDS011;24553;51.640;-0.752;2023-03-05T09:28:24;7.28;;;3.78;;
38811;SDS011;24553;51.640;-0.752;2023-03-05T09:30:50;8.40;;;4.00;;
38811;SDS011;24553;51.640;-0.752;2023-03-05T09:33:15;4.70;;;3.70;;
38811;SDS011;24553;51.640;-0.752;2023-03-05T09:35:40;4.70;;;2.97;;
38811;SDS011;24553;51.640;-0.752;2023-03-05T09:38:06;7.10;;;3.95;;
38811;SDS011;24553;51.640;-0.752;2023-03-05T09:40:47;4.88;;;3.33;;
38811;SDS011;24553;51.640;-0.752;2023-03-05T09:48:38;8.45;;;3.35;;
38811;SDS011;24553;51.640;-0.752;2023-03-05T09:51:06;3.55;;;2.72;;
38811;SDS011;24553;51.640;-0.752;2023-03-05T09:53:44;5.10;;;3.95;;
38811;SDS011;24553;51.640;-0.752;2023-03-05T09:56:15;6.70;;;3.08;;
38811;SDS011;24553;51.640;-0.752;2023-03-05T09:58:51;3.92;;;3.17;;
38811;SDS011;24553;51.640;-0.752;2023-03-05T10:01:29;5.72;;;3.42;;
38811;SDS011;24553;51.640;-0.752;2023-03-05T10:04:08;6.18;;;2.97;;
38811;SDS011;24553;51.640;-0.752;2023-03-05T10:06:42;4.63;;;2.63;;
38811;SDS011;24553;51.640;-0.752;2023-03-05T10:14:32;5.20;;;2.72;;
38811;SDS011;24553;51.640;-0.752;2023-03-05T10:25:21;3.40;;;2.70;;
38811;SDS011;24553;51.640;-0.752;2023-03-05T10:27:59;6.78;;;3.60;;
38811;SDS011;24553;51.640;-0.752;2023-03-05T10:30:31;5.22;;;3.20;;
38811;SDS011;24553;51.640;-0.752;2023-03-05T10:35:43;5.75;;;3.08;;
38811;SDS011;24553;51.640;-0.752;2023-03-05T10:38:51;4.60;;;2.75;;
38811;SDS011;24553;51.640;-0.752;2023-03-05T10:46:30;3.85;;;2.80;;
38811;SDS011;24553;51.640;-0.752;2023-03-05T10:49:11;4.68;;;3.05;;
38811;SDS011;24553;51.640;-0.752;2023-03-05T10:52:26;12.02;;;3.17;;
38811;SDS011;24553;51.640;-0.752;2023-03-05T10:54:37;4.60;;;3.08;;
38811;SDS011;24553;51.640;-0.752;2023-03-05T10:59:37;4.07;;;2.25;;
38811;SDS011;24553;51.640;-0.752;2023-03-05T11:02:06;5.35;;;2.55;;
38811;SDS011;24553;51.640;-0.752;2023-03-05T11:04:34;6.45;;;2.95;;
38811;SDS011;24553;51.640;-0.752;2023-03-05T11:07:05;7.32;;;2.58;;
38811;SDS011;24553;51.640;-0.752;2023-03-05T11:09:32;7.85;;;2.75;;
38811;SDS011;24553;51.640;-0.752;2023-03-05T11:12:14;3.03;;;2.70;;
38811;SDS011;24553;51.640;-0.752;2023-03-05T11:23:01;5.10;;;2.20;;
38811;SDS011;24553;51.640;-0.752;2023-03-05T11:25:28;4.18;;;2.33;;
38811;SDS011;24553;51.640;-0.752;2023-03-05T11:27:54;6.97;;;3.47;;
38811;SDS011;24553;51.640;-0.752;2023-03-05T11:30:31;4.43;;;2.53;;
38811;SDS011;24553;51.640;-0.752;2023-03-05T11:33:08;3.08;;;2.72;;
38811;SDS011;24553;51.640;-0.752;2023-03-05T11:35:39;3.97;;;2.90;;
38811;SDS011;24553;51.640;-0.752;2023-03-05T11:38:10;5.28;;;2.28;;
38811;SDS011;24553;51.640;-0.752;2023-03-05T11:40:40;3.88;;;3.45;;
38811;SDS011;24553;51.640;-0.752;2023-03-05T11:43:08;4.80;;;3.15;;
38811;SDS011;24553;51.640;-0.752;2023-03-05T11:45:48;3.95;;;2.33;;
38811;SDS011;24553;51.640;-0.752;2023-03-05T11:48:27;4.00;;;2.97;;
38811;SDS011;24553;51.640;-0.752;2023-03-05T11:50:59;3.83;;;2.60;;
38811;SDS011;24553;51.640;-0.752;2023-03-05T11:53:27;3.22;;;2.92;;
38811;SDS011;24553;51.640;-0.752;2023-03-05T11:56:29;4.97;;;2.80;;
38811;SDS011;24553;51.640;-0.752;2023-03-05T11:59:03;6.30;;;3.35;;
38811;SDS011;24553;51.640;-0.752;2023-03-05T12:01:41;2.58;;;2.20;;
38811;SDS011;24553;51.640;-0.752;2023-03-05T12:04:10;3.17;;;2.30;;
38811;SDS011;24553;51.640;-0.752;2023-03-05T12:14:50;2.60;;;2.15;;
38811;SDS011;24553;51.640;-0.752;2023-03-05T12:20:04;5.53;;;3.35;;
38811;SDS011;24553;51.640;-0.752;2023-03-05T12:22:38;4.97;;;2.65;;
38811;SDS011;24553;51.640;-0.752;2023-03-05T12:25:22;5.28;;;3.38;;
38811;SDS011;24553;51.640;-0.752;2023-03-05T12:27:51;3.88;;;2.45;;
38811;SDS011;24553;51.640;-0.752;2023-03-05T12:32:53;5.32;;;3.40;;
38811;SDS011;24553;51.640;-0.752;2023-03-05T12:35:26;6.13;;;3.65;;
38811;SDS011;24553;51.640;-0.752;2023-03-05T12:40:20;6.68;;;3.00;;
38811;SDS011;24553;51.640;-0.752;2023-03-05T12:53:09;4.43;;;3.08;;
38811;SDS011;24553;51.640;-0.752;2023-03-05T12:58:44;6.30;;;2.40;;
38811;SDS011;24553;51.640;-0.752;2023-03-05T13:03:47;5.18;;;2.47;;
38811;SDS011;24553;51.640;-0.752;2023-03-05T13:06:22;5.00;;;2.83;;
38811;SDS011;24553;51.640;-0.752;2023-03-05T13:08:56;2.75;;;2.17;;
38811;SDS011;24553;51.640;-0.752;2023-03-05T13:11:22;3.50;;;2.72;;
38811;SDS011;24553;51.640;-0.752;2023-03-05T13:13:48;3.17;;;2.08;;
38811;SDS011;24553;51.640;-0.752;2023-03-05T13:16:15;8.25;;;3.78;;
38811;SDS011;24553;51.640;-0.752;2023-03-05T13:18:47;3.92;;;2.95;;
38811;SDS011;24553;51.640;-0.752;2023-03-05T13:21:14;3.72;;;2.22;;
38811;SDS011;24553;51.640;-0.752;2023-03-05T13:23:48;6.90;;;2.83;;
38811;SDS011;24553;51.640;-0.752;2023-03-05T13:26:21;3.50;;;2.35;;
38811;SDS011;24553;51.640;-0.752;2023-03-05T13:31:44;2.38;;;1.80;;
38811;SDS011;24553;51.640;-0.752;2023-03-05T13:34:14;2.70;;;2.22;;
38811;SDS011;24553;51.640;-0.752;2023-03-05T13:36:45;1.98;;;1.80;;
38811;SDS011;24553;51.640;-0.752;2023-03-05T13:39:19;12.93;;;2.35;;
38811;SDS011;24553;51.640;-0.752;2023-03-05T13:44:57;3.30;;;2.60;;
38811;SDS011;24553;51.640;-0.752;2023-03-05T13:47:25;3.22;;;2.30;;
38811;SDS011;24553;51.640;-0.752;2023-03-05T13:49:56;5.63;;;3.10;;
38811;SDS011;24553;51.640;-0.752;2023-03-05T13:52:28;3.78;;;2.38;;
38811;SDS011;24553;51.640;-0.752;2023-03-05T13:54:56;4.93;;;1.88;;
38811;SDS011;24553;51.640;-0.752;2023-03-05T13:57:39;5.60;;;2.83;;
38811;SDS011;24553;51.640;-0.752;2023-03-05T14:00:22;4.18;;;2.05;;
38811;SDS011;24553;51.640;-0.752;2023-03-05T14:05:33;2.15;;;1.98;;
38811;SDS011;24553;51.640;-0.752;2023-03-05T14:07:59;6.72;;;2.33;;
38811;SDS011;24553;51.640;-0.752;2023-03-05T14:10:33;3.05;;;2.15;;
38811;SDS011;24553;51.640;-0.752;2023-03-05T14:13:04;1.67;;;1.00;;
38811;SDS011;24553;51.640;-0.752;2023-03-05T14:15:37;5.25;;;3.03;;
38811;SDS011;24553;51.640;-0.752;2023-03-05T14:18:06;1.95;;;1.40;;
38811;SDS011;24553;51.640;-0.752;2023-03-05T14:20:35;3.63;;;1.58;;
38811;SDS011;24553;51.640;-0.752;2023-03-05T14:23:12;4.68;;;1.73;;
38811;SDS011;24553;51.640;-0.752;2023-03-05T14:29:12;2.15;;;1.98;;
38811;SDS011;24553;51.640;-0.752;2023-03-05T14:31:48;2.88;;;1.27;;
38811;SDS011;24553;51.640;-0.752;2023-03-05T14:34:19;1.42;;;1.20;;
38811;SDS011;24553;51.640;-0.752;2023-03-05T14:36:48;7.43;;;1.05;;
38811;SDS011;24553;51.640;-0.752;2023-03-05T14:39:29;3.33;;;0.82;;
38811;SDS011;24553;51.640;-0.752;2023-03-05T14:44:53;2.13;;;1.48;;
38811;SDS011;24553;51.640;-0.752;2023-03-05T14:47:20;2.35;;;1.35;;
38811;SDS011;24553;51.640;-0.752;2023-03-05T14:49:46;1.48;;;0.70;;
38811;SDS011;24553;51.640;-0.752;2023-03-05T14:52:16;1.95;;;0.80;;
38811;SDS011;24553;51.640;-0.752;2023-03-05T14:54:43;1.23;;;1.05;;
38811;SDS011;24553;51.640;-0.752;2023-03-05T14:57:12;2.92;;;1.65;;
38811;SDS011;24553;51.640;-0.752;2023-03-05T14:59:40;2.05;;;1.20;;
38811;SDS011;24553;51.640;-0.752;2023-03-05T15:02:12;8.18;;;1.30;;
38811;SDS011;24553;51.640;-0.752;2023-03-05T15:04:39;2.08;;;1.48;;
38811;SDS011;24553;51.640;-0.752;2023-03-05T15:07:05;3.72;;;1.15;;
38811;SDS011;24553;51.640;-0.752;2023-03-05T15:09:32;3.45;;;1.13;;
38811;SDS011;24553;51.640;-0.752;2023-03-05T15:11:57;1.75;;;0.90;;
38811;SDS011;24553;51.640;-0.752;2023-03-05T15:14:23;7.20;;;0.77;;
38811;SDS011;24553;51.640;-0.752;2023-03-05T15:16:48;3.08;;;1.38;;
38811;SDS011;24553;51.640;-0.752;2023-03-05T15:19:13;0.75;;;0.70;;
38811;SDS011;24553;51.640;-0.752;2023-03-05T15:21:39;1.48;;;0.82;;
38811;SDS011;24553;51.640;-0.752;2023-03-05T15:24:04;1.15;;;0.85;;
38811;SDS011;24553;51.640;-0.752;2023-03-05T15:26:30;2.63;;;0.60;;
38811;SDS011;24553;51.640;-0.752;2023-03-05T15:28:55;3.78;;;0.85;;
38811;SDS011;24553;51.640;-0.752;2023-03-05T15:31:21;1.98;;;0.63;;
38811;SDS011;24553;51.640;-0.752;2023-03-05T15:33:46;2.95;;;1.23;;
38811;SDS011;24553;51.640;-0.752;2023-03-05T15:36:11;1.88;;;0.65;;
38811;SDS011;24553;51.640;-0.752;2023-03-05T15:38:37;1.50;;;0.82;;
38811;SDS011;24553;51.640;-0.752;2023-03-05T15:41:05;2.33;;;1.10;;
38811;SDS011;24553;51.640;-0.752;2023-03-05T15:43:30;0.88;;;0.55;;
38811;SDS011;24553;51.640;-0.752;2023-03-05T15:45:56;0.82;;;0.60;;
38811;SDS011;24553;51.640;-0.752;2023-03-05T15:48:21;4.57;;;1.38;;
38811;SDS011;24553;51.640;-0.752;2023-03-05T15:50:46;2.20;;;1.17;;
38811;SDS011;24553;51.640;-0.752;2023-03-05T15:53:12;6.70;;;1.67;;
38811;SDS011;24553;51.640;-0.752;2023-03-05T15:55:40;2.58;;;1.38;;
38811;SDS011;24553;51.640;-0.752;2023-03-05T15:58:07;1.45;;;0.65;;
38811;SDS011;24553;51.640;-0.752;2023-03-05T16:00:34;0.70;;;0.40;;
38811;SDS011;24553;51.640;-0.752;2023-03-05T16:03:04;5.43;;;1.17;;
38811;SDS011;24553;51.640;-0.752;2023-03-05T16:05:30;1.40;;;0.68;;